Denver International Airport
KDEN : now visible

Airfield :











YOU CAN JOIN US ON...

 
LOGIN :

Register | Disclaimer

   EN    FR    IT 

 









Legend :    VFR   Marginal VFR   IFR   Intensive IFR   Very Intensive IFR
Visi :
Ceiling :
>= 8 km
>= 3000ft
5 to 8 km
1000 to 3000 ft
1500m to 5 km
500 to 1000 ft
800 to 1500m
200 to 500 ft
< 800m
< 200 ft
Symbols :   Thunderstorms  Fog  Heavy snow  Heavy precipitations  Wind > 20 kt






- Airport Elevation : 5431 ft
- IATA code : DEN


KDEN - Denver International

CURRENT METAR :
  • 031753Z 14009KT 10SM FEW016 FEW024 BKN060 01/M04 A3012 RMK AO2 SLP231 T00061044 10006 21072 58005

EXPIRED METARs :
  • 031653Z 08005KT 10SM FEW040 SCT065 BKN075 BKN220 M03/M06 A3014 RMK AO2 SLP245 T10281056
  • 031553Z 08003KT 10SM FEW040 BKN070 BKN220 M04/M07 A3014 RMK AO2 SLP251 T10441072

TAF KDEN
Valid from the 03 at 18:00 until the 05 at 00:00 UTC


031740Z 0318/0424 11006KT P6SM FEW040 SCT060 BKN070
FM032000 14009KT P6SM FEW050 BKN090
FM040400 18010KT P6SM BKN090
FM040700 21008KT P6SM FEW080 SCT120
FM041500 VRB05KT P6SM SKC
FM041900 10006KT P6SM FEW080 SCT120



MET'MAP, your aeronautical weather chart ! - Copyright ORBIFLY December 2007 - Disclaimer

ORBIFLY MET'MAP TEAM :

Programming & Development : Alexandra Zaïnal
Concept & original design : Baudouin d'Aumeries
Assistance for programming : Marc-Olivier Méhu
Technical & hardware support : Manuel Goepfert

Contact : metmap@orbifly.com




SOURCES & CREDITS :

   NOAA       Earth
Advisory